createdAt,value
2018-07-05T00:00:46.536Z,12.83
2018-07-05T00:03:33.646Z,12.93
2018-07-05T00:06:20.575Z,12.27
2018-07-05T00:09:01.415Z,12.87
2018-07-05T00:11:48.402Z,13.43
2018-07-05T00:14:35.486Z,13.53
2018-07-05T00:17:23.081Z,14.50
2018-07-05T00:20:10.360Z,14.83
2018-07-05T00:22:58.449Z,14.60
2018-07-05T00:25:45.555Z,14.83
2018-07-05T00:28:32.563Z,14.17
2018-07-05T00:31:19.532Z,15.03
2018-07-05T00:34:06.533Z,14.27
2018-07-05T00:36:53.686Z,13.57
2018-07-05T00:39:40.637Z,17.33
2018-07-05T00:42:27.528Z,15.00
2018-07-05T00:45:14.538Z,15.60
2018-07-05T00:48:01.595Z,17.77
2018-07-05T00:50:48.626Z,16.43
2018-07-05T00:53:35.793Z,17.03
2018-07-05T00:56:23.612Z,16.30
2018-07-05T00:59:11.018Z,16.50
2018-07-05T01:01:57.995Z,13.37
2018-07-05T01:04:44.936Z,12.77
2018-07-05T01:07:32.133Z,14.00
2018-07-05T01:10:19.569Z,14.00
2018-07-05T01:13:06.495Z,14.13
2018-07-05T01:15:53.637Z,14.47
2018-07-05T01:18:40.510Z,15.60
2018-07-05T01:21:27.552Z,15.80
2018-07-05T01:24:15.912Z,14.23
2018-07-05T01:27:03.015Z,15.43
2018-07-05T01:29:50.218Z,15.00
2018-07-05T01:32:37.134Z,16.03
2018-07-05T01:35:24.080Z,16.67
2018-07-05T01:38:10.872Z,15.30
2018-07-05T01:40:57.870Z,15.97
2018-07-05T01:43:44.904Z,16.67
2018-07-05T01:46:31.973Z,15.40
2018-07-05T01:49:18.896Z,15.80
2018-07-05T01:52:10.189Z,14.97
2018-07-05T01:54:57.428Z,14.13
2018-07-05T01:57:44.432Z,13.43
2018-07-05T02:00:31.443Z,12.37
2018-07-05T02:03:18.428Z,12.90
2018-07-05T02:06:05.465Z,12.10
2018-07-05T02:08:52.565Z,11.63
2018-07-05T02:11:40.365Z,11.60
2018-07-05T02:14:27.582Z,12.13
2018-07-05T02:17:14.673Z,11.50
2018-07-05T02:20:01.773Z,10.97
2018-07-05T02:22:48.838Z,10.30
2018-07-05T02:25:35.904Z,11.93
2018-07-05T02:28:23.012Z,11.10
2018-07-05T02:31:10.257Z,11.77
2018-07-05T02:33:59.435Z,12.50
2018-07-05T02:36:40.637Z,11.93
2018-07-05T02:39:32.889Z,10.80
2018-07-05T02:42:19.913Z,9.87
2018-07-05T02:45:07.056Z,10.83
2018-07-05T02:47:54.240Z,11.20
2018-07-05T02:50:41.342Z,11.10
2018-07-05T02:53:28.402Z,11.40
2018-07-05T02:56:15.561Z,12.00
2018-07-05T02:59:02.693Z,11.20
2018-07-05T03:01:49.956Z,11.00
2018-07-05T03:04:37.017Z,12.13
2018-07-05T03:07:23.892Z,11.23
2018-07-05T03:10:11.032Z,11.13
2018-07-05T03:12:58.890Z,10.60
2018-07-05T03:15:39.760Z,11.50
2018-07-05T03:18:26.568Z,12.17
2018-07-05T03:21:13.594Z,11.40
2018-07-05T03:24:00.714Z,11.33
2018-07-05T03:26:47.748Z,10.03
2018-07-05T03:29:34.832Z,10.40
2018-07-05T03:32:22.368Z,11.50
2018-07-05T03:35:09.864Z,10.57
2018-07-05T03:37:57.013Z,10.40
2018-07-05T03:40:44.043Z,10.60
2018-07-05T03:43:31.219Z,9.23
2018-07-05T03:46:18.152Z,10.07
2018-07-05T03:49:05.084Z,9.00
2018-07-05T03:51:51.997Z,10.40
2018-07-05T03:54:39.248Z,10.40
2018-07-05T03:57:26.285Z,9.97
2018-07-05T04:00:13.388Z,10.40
2018-07-05T04:03:00.469Z,10.03
2018-07-05T04:05:47.404Z,10.43
2018-07-05T04:08:34.510Z,10.00
2018-07-05T04:11:21.456Z,10.57
2018-07-05T04:14:08.463Z,10.50
2018-07-05T04:16:55.559Z,11.30
2018-07-05T04:19:48.126Z,9.93
2018-07-05T04:22:35.140Z,9.57
2018-07-05T04:25:22.156Z,11.20
2018-07-05T04:28:09.388Z,10.70
2018-07-05T04:30:56.503Z,10.43
2018-07-05T04:33:43.669Z,9.63
2018-07-05T04:36:30.556Z,10.07
2018-07-05T04:39:17.652Z,10.07
2018-07-05T04:42:04.894Z,11.00
2018-07-05T04:44:52.193Z,10.87
2018-07-05T04:47:39.420Z,11.30
2018-07-05T04:50:26.565Z,11.67
2018-07-05T04:53:13.541Z,10.27
2018-07-05T04:56:00.637Z,10.30
2018-07-05T04:58:47.585Z,10.13
2018-07-05T05:01:34.622Z,10.77
2018-07-05T05:04:15.573Z,10.50
2018-07-05T05:07:02.488Z,10.90
2018-07-05T05:09:49.409Z,10.67
2018-07-05T05:12:36.442Z,11.00
2018-07-05T05:15:23.741Z,10.10
2018-07-05T05:18:10.736Z,10.10
2018-07-05T05:20:51.656Z,10.33
2018-07-05T05:23:38.638Z,10.07
2018-07-05T05:26:25.852Z,10.90
2018-07-05T05:29:12.867Z,10.90
2018-07-05T05:31:59.884Z,10.70
2018-07-05T05:34:46.901Z,11.73
2018-07-05T05:37:33.879Z,11.70
2018-07-05T05:40:21.164Z,12.50
2018-07-05T05:43:08.180Z,12.67
2018-07-05T05:45:55.408Z,11.77
2018-07-05T05:48:42.595Z,11.63
2018-07-05T05:51:29.583Z,12.70
2018-07-05T05:54:16.669Z,13.30
2018-07-05T05:57:03.917Z,13.33
2018-07-05T05:59:51.157Z,11.37
2018-07-05T06:02:38.367Z,11.47
2018-07-05T06:05:25.540Z,11.50
2018-07-05T06:08:12.670Z,11.43
2018-07-05T06:10:59.588Z,11.50
2018-07-05T06:13:40.739Z,10.57
2018-07-05T06:16:27.629Z,11.73
2018-07-05T06:19:15.017Z,12.60
2018-07-05T06:22:02.106Z,13.37
2018-07-05T06:24:49.203Z,10.20
2018-07-05T06:27:36.247Z,10.67
2018-07-05T06:30:23.283Z,11.33
2018-07-05T06:33:10.465Z,10.73
2018-07-05T06:35:57.512Z,11.13
2018-07-05T06:38:44.565Z,11.90
2018-07-05T06:41:31.447Z,11.17
2018-07-05T06:44:18.923Z,11.67
2018-07-05T06:47:06.484Z,13.73
2018-07-05T06:49:53.603Z,12.67
2018-07-05T06:52:40.659Z,12.03
2018-07-05T06:55:27.762Z,11.90
2018-07-05T06:58:14.837Z,12.07
2018-07-05T07:01:01.856Z,12.97
2018-07-05T07:03:49.813Z,14.20
2018-07-05T07:06:37.030Z,14.63
2018-07-05T07:09:23.952Z,13.13
2018-07-05T07:12:10.913Z,15.67
2018-07-05T07:14:57.912Z,17.40
2018-07-05T07:17:45.229Z,17.40
2018-07-05T07:20:32.024Z,17.37
2018-07-05T07:23:19.417Z,15.73
2018-07-05T07:26:06.565Z,14.80
2018-07-05T07:28:53.637Z,13.83
2018-07-05T07:31:41.154Z,12.83
2018-07-05T07:34:28.412Z,12.43
2018-07-05T07:37:15.311Z,13.47
2018-07-05T07:40:02.296Z,12.67
2018-07-05T07:42:38.224Z,14.53
2018-07-05T07:45:06.640Z,12.37
2018-07-05T07:47:35.060Z,14.20
2018-07-05T07:50:03.464Z,12.50
2018-07-05T07:52:31.934Z,14.10
2018-07-05T07:55:00.444Z,13.67
2018-07-05T07:57:28.890Z,14.20
2018-07-05T07:59:57.332Z,13.20
2018-07-05T08:02:25.738Z,12.60
2018-07-05T08:04:54.743Z,16.17
2018-07-05T08:07:23.159Z,14.00
2018-07-05T08:09:51.589Z,16.50
2018-07-05T08:12:20.009Z,15.30
2018-07-05T08:14:48.470Z,13.50
2018-07-05T08:17:16.903Z,13.37
2018-07-05T08:19:45.309Z,12.83
2018-07-05T08:22:14.016Z,12.87
2018-07-05T08:24:42.448Z,13.97
2018-07-05T08:27:10.853Z,11.37
2018-07-05T08:29:39.273Z,12.27
2018-07-05T08:32:08.068Z,13.23
2018-07-05T08:34:36.319Z,14.30
2018-07-05T08:37:10.348Z,13.60
2018-07-05T08:39:38.247Z,15.00
2018-07-05T08:42:06.696Z,14.60
2018-07-05T08:44:35.118Z,13.57
2018-07-05T08:47:03.554Z,12.13
2018-07-05T08:49:33.028Z,12.63
2018-07-05T08:52:02.517Z,12.27
2018-07-05T08:54:30.973Z,13.70
2018-07-05T08:56:59.388Z,11.73
2018-07-05T08:59:27.819Z,12.77
2018-07-05T09:01:56.226Z,10.77
2018-07-05T09:04:24.862Z,12.07
2018-07-05T09:06:53.526Z,10.40
2018-07-05T09:09:21.736Z,10.60
2018-07-05T09:11:50.261Z,8.20
2018-07-05T09:14:18.690Z,6.60
2018-07-05T09:16:47.112Z,8.60
2018-07-05T09:19:15.619Z,7.77
2018-07-05T09:21:44.041Z,6.67
2018-07-05T09:24:12.488Z,6.80
2018-07-05T09:26:41.247Z,8.03
2018-07-05T09:29:09.688Z,9.00
2018-07-05T09:31:38.164Z,10.30
2018-07-05T09:34:06.593Z,11.57
2018-07-05T09:36:35.289Z,8.90
2018-07-05T09:39:04.689Z,7.57
2018-07-05T09:41:33.561Z,8.57
2018-07-05T09:44:02.052Z,9.27
2018-07-05T09:46:30.505Z,9.47
2018-07-05T09:48:58.940Z,9.83
2018-07-05T09:51:27.367Z,9.33
2018-07-05T09:53:55.765Z,9.03
2018-07-05T09:56:24.512Z,11.43
2018-07-05T09:58:52.915Z,8.17
2018-07-05T10:01:21.333Z,10.53
2018-07-05T10:03:49.764Z,9.87
2018-07-05T10:06:18.251Z,9.90
2018-07-05T10:08:46.695Z,11.90
2018-07-05T10:11:15.118Z,11.27
2018-07-05T10:13:43.867Z,12.90
2018-07-05T10:16:12.079Z,9.33
2018-07-05T10:18:40.496Z,10.87
2018-07-05T10:21:08.948Z,9.90
2018-07-05T10:23:37.684Z,11.30
2018-07-05T10:26:05.924Z,12.00
2018-07-05T10:28:34.366Z,10.80
2018-07-05T10:31:15.049Z,13.33
2018-07-05T10:33:50.667Z,12.20
2018-07-05T10:36:19.068Z,12.13
2018-07-05T10:38:47.759Z,14.10
2018-07-05T10:41:28.523Z,13.17
2018-07-05T10:44:15.754Z,10.80
2018-07-05T10:47:02.881Z,9.07
2018-07-05T10:49:50.181Z,7.10
2018-07-05T10:52:37.327Z,9.03
2018-07-05T10:55:24.438Z,8.57
2018-07-05T10:58:11.461Z,9.00
2018-07-05T11:00:59.940Z,9.40
2018-07-05T11:03:47.112Z,9.70
2018-07-05T11:06:34.197Z,10.50
2018-07-05T11:09:21.300Z,10.37
2018-07-05T11:12:08.255Z,8.33
2018-07-05T11:14:55.503Z,7.83
2018-07-05T11:17:42.588Z,12.37
2018-07-05T11:20:30.001Z,10.70
2018-07-05T11:23:17.049Z,8.03
2018-07-05T11:26:04.052Z,8.80
2018-07-05T11:28:51.452Z,9.23
2018-07-05T11:31:39.117Z,7.50
2018-07-05T11:34:26.130Z,7.10
2018-07-05T11:37:13.151Z,5.67
2018-07-05T11:40:00.307Z,5.97
2018-07-05T11:42:47.500Z,6.63
2018-07-05T11:45:34.595Z,5.47
2018-07-05T11:48:21.592Z,5.67
2018-07-05T11:51:08.420Z,6.30
2018-07-05T11:53:55.412Z,5.70
2018-07-05T11:56:45.682Z,4.77
2018-07-05T11:59:32.720Z,4.87
2018-07-05T12:02:13.891Z,5.67
2018-07-05T12:05:00.837Z,8.80
2018-07-05T12:07:48.978Z,5.30
2018-07-05T12:10:36.082Z,5.60
2018-07-05T12:13:23.556Z,5.77
2018-07-05T12:16:10.728Z,4.20
2018-07-05T12:18:57.551Z,4.77
2018-07-05T12:21:44.757Z,5.20
2018-07-05T12:24:31.995Z,6.50
2018-07-05T12:27:19.068Z,5.17
2018-07-05T12:30:06.403Z,5.43
2018-07-05T12:32:53.266Z,5.70
2018-07-05T12:35:40.233Z,5.30
2018-07-05T12:38:27.089Z,8.53
2018-07-05T12:41:14.022Z,7.40
2018-07-05T12:44:01.196Z,8.73
2018-07-05T12:46:48.304Z,5.93
2018-07-05T12:49:35.317Z,7.00
2018-07-05T12:52:16.337Z,7.10
2018-07-05T12:55:03.498Z,5.70
2018-07-05T12:57:50.597Z,5.70
2018-07-05T13:00:37.561Z,7.47
2018-07-05T13:03:25.132Z,6.27
2018-07-05T13:06:12.002Z,6.40
2018-07-05T13:08:59.116Z,7.37
2018-07-05T13:11:46.153Z,7.20
2018-07-05T13:14:33.152Z,7.20
2018-07-05T13:17:20.323Z,6.43
2018-07-05T13:20:07.656Z,7.30
2018-07-05T13:22:54.721Z,6.77
2018-07-05T13:25:41.935Z,6.33
2018-07-05T13:28:29.104Z,7.10
2018-07-05T13:31:16.105Z,6.13
2018-07-05T13:34:03.226Z,6.10
2018-07-05T13:36:50.316Z,7.50
2018-07-05T13:39:37.391Z,6.43
2018-07-05T13:42:24.235Z,5.60
2018-07-05T13:45:11.461Z,5.80
2018-07-05T13:47:58.466Z,5.37
2018-07-05T13:50:46.004Z,4.97
2018-07-05T13:53:33.160Z,5.27
2018-07-05T13:56:20.192Z,5.50
2018-07-05T13:59:07.235Z,5.70
2018-07-05T14:01:54.226Z,5.20
2018-07-05T14:04:41.282Z,5.00
2018-07-05T14:07:28.258Z,5.70
2018-07-05T14:10:15.527Z,5.60
2018-07-05T14:13:02.877Z,5.33
2018-07-05T14:15:49.759Z,5.57
2018-07-05T14:18:36.740Z,5.57
2018-07-05T14:21:23.989Z,5.00
2018-07-05T14:24:11.041Z,4.97
2018-07-05T14:26:58.218Z,5.27
2018-07-05T14:29:45.135Z,5.60
2018-07-05T14:32:32.196Z,5.30
2018-07-05T14:35:19.228Z,5.37
2018-07-05T14:38:06.986Z,5.07
2018-07-05T14:40:54.024Z,9.20
2018-07-05T14:43:41.274Z,10.40
2018-07-05T14:46:28.308Z,11.57
2018-07-05T14:49:15.431Z,11.63
2018-07-05T14:52:02.794Z,11.63
2018-07-05T14:54:49.759Z,12.73
2018-07-05T14:57:36.824Z,14.03
2018-07-05T15:00:23.932Z,16.13
2018-07-05T15:03:10.671Z,16.13
2018-07-05T15:05:59.054Z,17.77
2018-07-05T15:08:39.991Z,17.93
2018-07-05T15:11:26.988Z,21.70
2018-07-05T15:14:14.079Z,22.70
2018-07-05T15:17:00.832Z,23.37
2018-07-05T15:19:47.748Z,22.43
2018-07-05T15:22:34.871Z,24.53
2018-07-05T15:25:21.917Z,24.00
2018-07-05T15:28:09.059Z,21.67
2018-07-05T15:30:56.094Z,20.67
2018-07-05T15:33:43.310Z,20.50
2018-07-05T15:36:30.344Z,23.27
2018-07-05T15:39:17.465Z,22.07
2018-07-05T15:42:04.480Z,22.40
2018-07-05T15:44:51.528Z,20.80
2018-07-05T15:47:39.487Z,22.30
2018-07-05T15:50:26.449Z,18.67
2018-07-05T15:53:13.400Z,19.00
2018-07-05T15:56:00.450Z,19.00
2018-07-05T15:58:47.405Z,19.70
2018-07-05T16:01:34.523Z,18.20
2018-07-05T16:04:21.627Z,18.50
2018-07-05T16:07:08.778Z,22.40
2018-07-05T16:09:55.782Z,20.47
2018-07-05T16:12:42.949Z,20.40
2018-07-05T16:15:29.854Z,19.60
2018-07-05T16:18:10.934Z,16.70
2018-07-05T16:20:57.975Z,17.03
2018-07-05T16:23:45.157Z,18.97
2018-07-05T16:26:32.076Z,17.40
2018-07-05T16:29:13.157Z,17.17
2018-07-05T16:31:59.753Z,16.07
2018-07-05T16:34:46.677Z,15.17
2018-07-05T16:37:33.820Z,16.60
2018-07-05T16:40:21.064Z,15.67
2018-07-05T16:43:07.854Z,13.22
2018-07-05T16:45:55.041Z,11.30
2018-07-05T16:48:42.096Z,9.33
2018-07-05T16:51:29.075Z,9.33
2018-07-05T16:54:16.181Z,8.20
2018-07-05T16:56:57.126Z,7.20
2018-07-05T16:59:37.975Z,6.20
2018-07-05T17:02:24.755Z,7.37
2018-07-05T17:05:05.643Z,4.70
2018-07-05T17:07:52.360Z,4.40
2018-07-05T17:10:39.590Z,3.83
2018-07-05T17:13:26.820Z,4.07
2018-07-05T17:16:14.121Z,4.27
2018-07-05T17:19:01.176Z,4.20
2018-07-05T17:21:48.243Z,3.60
2018-07-05T17:24:35.245Z,3.60
2018-07-05T17:27:22.293Z,3.67
2018-07-05T17:30:09.136Z,2.87
2018-07-05T17:32:56.192Z,4.67
2018-07-05T17:35:43.107Z,5.50
2018-07-05T17:38:30.098Z,3.63
2018-07-05T17:41:17.153Z,2.90
2018-07-05T17:44:04.135Z,3.13
2018-07-05T17:46:51.267Z,3.00
2018-07-05T17:49:38.449Z,3.17
2018-07-05T17:52:25.493Z,3.23
2018-07-05T17:55:13.113Z,2.60
2018-07-05T17:58:00.366Z,3.10
2018-07-05T18:00:41.941Z,3.10
2018-07-05T18:03:28.800Z,2.37
2018-07-05T18:06:15.983Z,2.93
2018-07-05T18:08:56.914Z,2.80
2018-07-05T18:11:43.849Z,2.90
2018-07-05T18:14:30.788Z,2.60
2018-07-05T18:17:17.748Z,2.50
2018-07-05T18:20:04.832Z,2.53
2018-07-05T18:22:51.964Z,3.03
2018-07-05T18:25:39.030Z,2.90
2018-07-05T18:28:26.034Z,3.00
2018-07-05T18:31:13.176Z,3.10
2018-07-05T18:33:54.154Z,3.03
2018-07-05T18:36:40.839Z,2.47
2018-07-05T18:39:28.074Z,3.47
2018-07-05T18:42:15.119Z,2.57
2018-07-05T18:44:56.057Z,2.60
2018-07-05T18:47:37.823Z,2.53
2018-07-05T18:50:24.707Z,2.40
2018-07-05T18:53:11.681Z,2.30
2018-07-05T18:55:58.881Z,2.50
2018-07-05T18:58:46.043Z,2.40
2018-07-05T19:01:33.185Z,2.77
2018-07-05T19:04:20.138Z,2.80
2018-07-05T19:07:08.905Z,2.50
2018-07-05T19:09:55.994Z,2.40
2018-07-05T19:12:42.988Z,2.17
2018-07-05T19:15:29.975Z,2.20
2018-07-05T19:18:17.093Z,1.90
2018-07-05T19:21:04.074Z,1.90
2018-07-05T19:23:52.538Z,2.47
2018-07-05T19:26:39.723Z,2.03
2018-07-05T19:29:26.699Z,1.87
2018-07-05T19:32:13.797Z,3.23
2018-07-05T19:35:00.938Z,4.63
2018-07-05T19:37:41.932Z,2.10
2018-07-05T19:40:28.900Z,2.03
2018-07-05T19:43:15.865Z,2.10
2018-07-05T19:46:02.969Z,1.53
2018-07-05T19:48:43.972Z,1.60
2018-07-05T19:51:30.912Z,2.10
2018-07-05T19:54:18.181Z,1.73
2018-07-05T19:57:05.435Z,2.33
2018-07-05T19:59:52.408Z,2.00
2018-07-05T20:02:39.474Z,1.80
2018-07-05T20:05:26.930Z,1.70
2018-07-05T20:08:14.037Z,1.50
2018-07-05T20:11:03.385Z,1.33
2018-07-05T20:13:50.424Z,1.47
2018-07-05T20:16:37.528Z,1.40
2018-07-05T20:19:25.029Z,2.30
2018-07-05T20:22:17.681Z,1.60
2018-07-05T20:25:04.757Z,1.40
2018-07-05T20:27:52.144Z,2.20
2018-07-05T20:30:39.962Z,8.73
2018-07-05T20:33:28.968Z,1.90
2018-07-05T20:36:16.858Z,1.60
2018-07-05T20:39:09.954Z,1.93
2018-07-05T20:42:01.068Z,1.80
2018-07-05T20:44:53.923Z,1.80
2018-07-05T20:47:41.030Z,1.70
2018-07-05T20:50:28.299Z,2.33
2018-07-05T20:53:15.245Z,1.93
2018-07-05T20:56:02.223Z,2.00
2018-07-05T20:58:49.024Z,1.73
2018-07-05T21:01:36.102Z,1.67
2018-07-05T21:04:23.589Z,1.90
2018-07-05T21:07:10.782Z,1.80
2018-07-05T21:09:57.774Z,2.20
2018-07-05T21:12:44.763Z,2.00
2018-07-05T21:15:32.008Z,2.00
2018-07-05T21:18:19.037Z,1.90
2018-07-05T21:21:06.174Z,2.33
2018-07-05T21:23:53.025Z,2.10
2018-07-05T21:26:33.832Z,2.13
2018-07-05T21:29:20.805Z,1.90
2018-07-05T21:32:08.435Z,2.20
2018-07-05T21:34:55.393Z,2.07
2018-07-05T21:37:42.433Z,2.40
2018-07-05T21:40:23.515Z,2.43
2018-07-05T21:43:10.152Z,2.47
2018-07-05T21:45:57.208Z,2.30
2018-07-05T21:48:44.216Z,1.93
2018-07-05T21:51:31.109Z,2.27
2018-07-05T21:54:18.424Z,2.50
2018-07-05T21:57:05.330Z,2.30
2018-07-05T21:59:52.388Z,2.33
2018-07-05T22:02:39.349Z,2.17
2018-07-05T22:05:26.290Z,2.00
2018-07-05T22:08:13.272Z,2.60
2018-07-05T22:11:00.305Z,2.70
2018-07-05T22:13:47.521Z,2.10
2018-07-05T22:16:36.707Z,2.90
2018-07-05T22:19:29.274Z,2.37
2018-07-05T22:22:21.888Z,2.87
2018-07-05T22:25:14.521Z,2.50
2018-07-05T22:28:06.981Z,3.20
2018-07-05T22:30:59.611Z,2.57
2018-07-05T22:33:46.680Z,2.93
2018-07-05T22:36:33.779Z,2.73
2018-07-05T22:39:20.876Z,2.83
2018-07-05T22:42:08.100Z,2.90
2018-07-05T22:44:55.009Z,2.90
2018-07-05T22:47:42.316Z,2.47
2018-07-05T22:50:29.253Z,3.07
2018-07-05T22:53:16.303Z,2.90
2018-07-05T22:55:57.723Z,2.80
2018-07-05T22:58:44.557Z,3.10
2018-07-05T23:01:32.032Z,3.50
2018-07-05T23:04:19.355Z,2.60
2018-07-05T23:07:00.333Z,3.33
2018-07-05T23:09:47.101Z,3.17
2018-07-05T23:12:34.047Z,2.70
2018-07-05T23:15:21.164Z,2.80
2018-07-05T23:18:08.175Z,3.00
2018-07-05T23:20:55.177Z,3.20
2018-07-05T23:23:43.156Z,2.87
2018-07-05T23:26:30.055Z,3.03
2018-07-05T23:29:17.075Z,2.87
2018-07-05T23:31:58.048Z,2.97
2018-07-05T23:34:38.761Z,2.50
2018-07-05T23:37:25.507Z,3.20
2018-07-05T23:40:12.629Z,2.80
2018-07-05T23:42:59.600Z,3.20
2018-07-05T23:45:46.612Z,2.87
2018-07-05T23:48:33.536Z,2.50
2018-07-05T23:51:20.581Z,2.80
2018-07-05T23:54:07.668Z,3.00
2018-07-05T23:56:54.813Z,2.80
2018-07-05T23:59:41.607Z,2.43
